Time;durP1;ratioP1;P1;durP2;ratioP2;P2;SDS_P1;SDS_P2;PMS_P1;PMS_P2;Temp;Humidity;BMP_temperature;BMP_pressure;BME280_temperature;BME280_humidity;BME280_pressure;Samples;Min_cycle;Max_cycle;Signal;HPM_P1;HPM_P2
2023/06/23 01:22:55;;;;;;;71.30;37.80;;;16.80;99.50;;;;;;5864617;23;88643;31
2023/06/23 01:25:32;;;;;;;79.95;39.65;;;16.70;99.60;;;;;;4804419;29;87493;-88
2023/06/23 01:28:37;;;;;;;66.55;37.00;;;16.60;99.60;;;;;;4790675;29;90343;-89
2023/06/23 01:31:06;;;;;;;61.67;37.13;;;16.60;99.70;;;;;;4805587;29;91821;-89
2023/06/23 01:33:39;;;;;;;62.22;35.47;;;16.60;99.90;;;;;;4787817;29;91336;-88
2023/06/23 01:36:09;;;;;;;61.33;36.80;;;16.60;99.70;;;;;;4786891;29;88966;-89
2023/06/23 01:38:38;;;;;;;63.60;37.45;;;16.50;99.70;;;;;;4789767;29;91600;-88
2023/06/23 01:41:09;;;;;;;73.63;36.63;;;16.50;99.70;;;;;;4789742;29;90639;-89
2023/06/23 01:43:37;;;;;;;66.82;36.80;;;16.40;99.60;;;;;;4787400;29;91835;-90
2023/06/23 01:46:11;;;;;;;65.43;35.58;;;16.40;99.60;;;;;;4799713;29;87592;-87
2023/06/23 01:48:41;;;;;;;62.22;36.17;;;16.40;99.70;;;;;;4823807;29;89118;-88
2023/06/23 01:51:08;;;;;;;67.72;36.35;;;16.30;99.80;;;;;;4808757;29;91357;-88
2023/06/23 01:53:34;;;;;;;72.32;36.58;;;16.30;99.90;;;;;;4823136;29;90215;-89
2023/06/23 01:56:03;;;;;;;72.35;36.65;;;16.30;99.90;;;;;;4809860;29;87590;-87
2023/06/23 01:58:30;;;;;;;66.43;36.80;;;16.20;99.90;;;;;;4808147;29;90053;-89
2023/06/23 02:00:57;;;;;;;73.45;37.28;;;16.20;99.90;;;;;;4822535;29;93709;-89
2023/06/23 02:03:24;;;;;;;72.78;37.97;;;16.20;99.90;;;;;;4806733;29;90339;-89
2023/06/23 02:05:51;;;;;;;74.03;39.20;;;16.20;99.90;;;;;;4824334;29;87539;-89
2023/06/23 02:08:18;;;;;;;71.82;36.47;;;16.10;99.90;;;;;;4807807;29;90175;-88
2023/06/23 02:10:44;;;;;;;71.97;36.80;;;16.10;99.90;;;;;;4807941;29;91525;-88
2023/06/23 02:13:11;;;;;;;64.10;35.65;;;16.10;99.90;;;;;;4823222;29;89916;-87
2023/06/23 02:15:38;;;;;;;69.85;36.33;;;16.00;99.90;;;;;;4823346;29;87786;-90
2023/06/23 02:18:05;;;;;;;65.50;36.75;;;16.00;99.90;;;;;;4823920;29;90648;-89
2023/06/23 02:20:33;;;;;;;68.22;36.20;;;16.00;99.90;;;;;;4807290;29;90236;-90
2023/06/23 02:23:00;;;;;;;67.80;37.00;;;16.00;99.90;;;;;;4822656;29;90009;-88
2023/06/23 02:25:27;;;;;;;75.93;37.33;;;16.00;99.90;;;;;;4823871;29;89214;-89
2023/06/23 02:27:53;;;;;;;67.93;35.28;;;15.90;99.90;;;;;;4823618;29;89043;-89
2023/06/23 02:30:19;;;;;;;55.33;33.08;;;15.90;99.90;;;;;;4808324;29;91000;-88
2023/06/23 02:32:46;;;;;;;57.65;33.35;;;15.90;99.90;;;;;;4824865;29;90183;-89
2023/06/23 02:35:13;;;;;;;66.32;35.80;;;15.90;99.90;;;;;;4807794;29;87428;-87
2023/06/23 02:37:43;;;;;;;67.75;35.72;;;15.90;99.90;;;;;;4822610;29;88197;-89
2023/06/23 02:40:16;;;;;;;72.53;37.95;;;15.90;99.90;;;;;;4806995;29;90372;-89
2023/06/23 02:42:51;;;;;;;65.88;35.30;;;15.80;99.90;;;;;;4823523;29;90978;-89
2023/06/23 02:45:25;;;;;;;66.32;34.50;;;15.80;99.90;;;;;;4806788;29;87410;-88
2023/06/23 02:47:54;;;;;;;58.90;32.58;;;15.80;99.90;;;;;;4808522;29;87680;-90
2023/06/23 02:50:26;;;;;;;56.42;30.85;;;15.80;99.90;;;;;;4821122;29;92454;-88
2023/06/23 02:52:58;;;;;;;58.00;33.05;;;15.80;99.90;;;;;;4807340;29;92216;-90
2023/06/23 02:55:26;;;;;;;52.17;31.10;;;15.80;99.90;;;;;;4823359;29;87709;-89
2023/06/23 02:57:55;;;;;;;59.72;31.80;;;15.80;99.90;;;;;;4823151;29;88958;-89
2023/06/23 03:00:23;;;;;;;62.97;35.78;;;15.70;99.90;;;;;;4806778;29;93548;-89
2023/06/23 03:02:55;;;;;;;64.68;35.63;;;15.70;99.90;;;;;;4807636;29;90613;-89
2023/06/23 03:05:21;;;;;;;70.95;35.08;;;15.70;99.90;;;;;;4806903;29;87527;-89
2023/06/23 03:07:51;;;;;;;80.65;38.42;;;15.70;99.90;;;;;;4824431;29;90443;-88
2023/06/23 03:10:16;;;;;;;66.22;34.15;;;15.60;99.90;;;;;;4808275;29;90275;-90
2023/06/23 03:12:42;;;;;;;66.05;36.97;;;15.60;99.90;;;;;;4823591;29;91036;-88
2023/06/23 03:15:08;;;;;;;75.57;37.20;;;15.60;99.90;;;;;;4808209;29;88794;-89
2023/06/23 03:17:38;;;;;;;69.25;35.42;;;15.60;99.90;;;;;;4823255;29;91214;-88
2023/06/23 03:20:25;;;;;;;59.53;35.03;;;15.60;99.90;;;;;;4807999;29;91327;-90
2023/06/23 03:23:12;;;;;;;60.40;34.13;;;15.50;99.90;;;;;;4807644;29;90081;-87
2023/06/23 03:25:40;;;;;;;58.03;34.17;;;15.50;99.90;;;;;;4807529;29;88324;-89
2023/06/23 03:28:09;;;;;;;59.00;32.45;;;15.50;99.90;;;;;;4807564;29;90489;-90
2023/06/23 03:30:40;;;;;;;62.97;35.83;;;15.50;99.90;;;;;;4822132;29;90443;-89
2023/06/23 03:33:17;;;;;;;63.45;33.38;;;15.50;99.80;;;;;;4808754;29;91250;-90
2023/06/23 03:35:44;;;;;;;62.15;33.92;;;15.50;99.90;;;;;;4822509;29;89819;-89
2023/06/23 03:38:15;;;;;;;59.42;33.33;;;15.50;99.70;;;;;;4821854;29;89164;-89
2023/06/23 03:40:48;;;;;;;59.83;33.58;;;15.40;99.60;;;;;;4821867;29;91298;-89
2023/06/23 03:43:36;;;;;;;59.25;33.90;;;15.40;99.70;;;;;;4822498;29;90917;-88
2023/06/23 03:46:08;;;;;;;62.45;33.58;;;15.40;99.80;;;;;;4823236;29;88476;-89
2023/06/23 03:48:37;;;;;;;54.92;33.05;;;15.40;99.80;;;;;;4806458;29;89999;-87
2023/06/23 03:51:05;;;;;;;61.13;35.05;;;15.40;99.70;;;;;;4823534;29;90093;-87
2023/06/23 03:53:32;;;;;;;63.90;31.83;;;15.30;99.70;;;;;;4823005;29;89827;-90
2023/06/23 03:56:00;;;;;;;61.97;33.38;;;15.30;99.70;;;;;;4807888;29;87817;-88
2023/06/23 03:58:27;;;;;;;67.82;34.70;;;15.30;99.70;;;;;;4823432;29;90645;-89
2023/06/23 04:00:55;;;;;;;50.05;29.63;;;15.30;99.70;;;;;;4798350;29;90428;-89
2023/06/23 04:03:23;;;;;;;48.90;29.50;;;15.30;99.70;;;;;;4810070;29;90379;-89
2023/06/23 04:05:49;;;;;;;48.83;30.17;;;15.30;99.70;;;;;;4810485;29;88509;-89
2023/06/23 04:08:18;;;;;;;59.63;32.42;;;15.30;99.60;;;;;;4810139;29;89444;-88
2023/06/23 04:10:46;;;;;;;58.88;32.67;;;15.30;99.60;;;;;;4825440;29;91435;-88
2023/06/23 04:13:13;;;;;;;66.78;34.20;;;15.30;99.90;;;;;;4810069;29;91589;-87
2023/06/23 04:15:40;;;;;;;65.78;34.75;;;15.30;99.70;;;;;;4810149;29;87531;-89
2023/06/23 04:18:10;;;;;;;64.03;34.83;;;15.20;99.80;;;;;;4810720;29;89292;-89
2023/06/23 04:20:38;;;;;;;66.63;33.53;;;15.30;99.90;;;;;;4809852;29;97344;-90
2023/06/23 04:23:05;;;;;;;58.92;33.47;;;15.30;99.90;;;;;;4824630;29;90018;-89
2023/06/23 04:25:31;;;;;;;62.28;34.97;;;15.30;99.90;;;;;;4809828;29;87519;-89
2023/06/23 04:28:00;;;;;;;63.38;34.53;;;15.30;99.90;;;;;;4825684;29;89535;-89
2023/06/23 04:30:29;;;;;;;73.95;36.60;;;15.30;99.90;;;;;;4809478;29;92421;-89
2023/06/23 04:32:55;;;;;;;69.80;36.28;;;15.30;99.90;;;;;;4825826;29;90785;-89
2023/06/23 04:35:21;;;;;;;73.65;37.33;;;15.40;99.90;;;;;;4824749;29;92950;-89
2023/06/23 04:37:52;;;;;;;69.28;37.03;;;15.40;99.90;;;;;;4825129;29;89113;-88
2023/06/23 04:40:28;;;;;;;62.80;35.53;;;15.40;99.90;;;;;;4809664;29;90102;-88
2023/06/23 04:43:09;;;;;;;61.25;36.72;;;15.40;99.90;;;;;;4809354;29;90868;-88
2023/06/23 04:45:38;;;;;;;61.45;34.47;;;15.40;99.90;;;;;;4824747;29;87738;-88
2023/06/23 04:48:07;;;;;;;61.05;34.65;;;15.50;99.90;;;;;;4810878;29;91207;-89
2023/06/23 04:50:35;;;;;;;66.78;35.97;;;15.50;99.90;;;;;;4809590;29;91381;-88
2023/06/23 04:53:05;;;;;;;67.90;36.30;;;15.50;99.90;;;;;;4809036;29;91852;-90
2023/06/23 04:55:35;;;;;;;61.38;35.92;;;15.60;99.90;;;;;;4809549;29;88619;-89
2023/06/23 04:58:04;;;;;;;68.55;37.50;;;15.60;99.90;;;;;;4824628;29;90596;-88
2023/06/23 05:00:31;;;;;;;72.72;37.45;;;15.60;99.90;;;;;;4824809;29;90387;-90
2023/06/23 05:03:00;;;;;;;77.63;39.72;;;15.70;99.90;;;;;;4810102;29;90212;-89
2023/06/23 05:05:28;;;;;;;70.57;37.28;;;15.70;99.90;;;;;;4824606;29;88113;-88
2023/06/23 05:07:56;;;;;;;63.42;35.83;;;15.70;99.90;;;;;;4824206;29;90727;-88
2023/06/23 05:10:23;;;;;;;76.43;38.08;;;15.80;99.90;;;;;;4825130;29;91427;-88
2023/06/23 05:12:52;;;;;;;71.28;39.20;;;15.80;99.90;;;;;;4809191;29;90955;-89
2023/06/23 05:15:19;;;;;;;66.97;37.50;;;15.80;99.90;;;;;;4809364;29;87600;-88
2023/06/23 05:17:48;;;;;;;67.00;36.22;;;15.90;99.90;;;;;;4824660;29;88935;-89
2023/06/23 05:20:19;;;;;;;65.80;35.95;;;15.90;99.80;;;;;;4809971;29;90704;-89
2023/06/23 05:22:48;;;;;;;69.45;36.17;;;16.00;99.90;;;;;;4808738;29;92199;-89
2023/06/23 05:25:16;;;;;;;76.65;37.35;;;16.00;99.80;;;;;;4824451;29;87143;-88
2023/06/23 05:27:45;;;;;;;70.15;37.65;;;16.10;99.90;;;;;;4825036;29;90344;-89
2023/06/23 05:30:17;;;;;;;70.07;37.25;;;16.10;99.80;;;;;;4825730;29;91503;-88
2023/06/23 05:32:44;;;;;;;63.70;36.30;;;16.20;99.80;;;;;;4824869;29;94555;-89
2023/06/23 05:35:11;;;;;;;68.53;36.85;;;16.20;99.80;;;;;;4809970;29;87807;-89
2023/06/23 05:37:40;;;;;;;65.00;35.15;;;16.30;99.80;;;;;;4809558;29;89371;-89
2023/06/23 05:40:09;;;;;;;63.55;36.40;;;16.40;99.60;;;;;;4810214;29;91477;-89
2023/06/23 05:42:35;;;;;;;61.70;34.90;;;16.40;99.40;;;;;;4809068;29;90986;-90
2023/06/23 05:45:04;;;;;;;60.00;35.10;;;16.50;99.60;;;;;;4825472;29;88522;-88
2023/06/23 05:48:12;;;;;;;58.60;35.22;;;16.60;99.30;;;;;;4808459;29;90067;-89
2023/06/23 05:50:39;;;;;;;64.72;34.42;;;16.60;99.40;;;;;;4795547;29;95681;-90
2023/06/23 05:53:13;;;;;;;64.47;34.83;;;16.70;99.20;;;;;;4808471;29;90080;-91
2023/06/23 05:55:45;;;;;;;61.17;34.70;;;16.80;99.10;;;;;;4824387;29;87672;-90
2023/06/23 05:58:13;;;;;;;57.28;32.95;;;16.80;98.80;;;;;;4823694;29;89895;-89
2023/06/23 06:00:46;;;;;;;58.25;33.65;;;16.90;98.70;;;;;;4807621;29;91371;-90
2023/06/23 06:03:14;;;;;;;58.72;32.85;;;17.00;98.80;;;;;;4824590;29;91458;-89
2023/06/23 06:05:46;;;;;;;52.90;32.60;;;17.00;98.70;;;;;;4825440;29;87216;-89
2023/06/23 06:08:11;;;;;;;53.50;32.20;;;17.10;98.40;;;;;;4809138;29;90291;-90
2023/06/23 06:10:39;;;;;;;52.03;31.65;;;17.20;98.30;;;;;;4807558;29;92183;-91
2023/06/23 06:13:05;;;;;;;53.45;30.70;;;17.20;98.20;;;;;;4807819;29;91860;-88
2023/06/23 06:15:34;;;;;;;56.38;33.75;;;17.30;98.10;;;;;;4809363;29;87691;-84
2023/06/23 06:18:03;;;;;;;61.97;32.58;;;17.30;98.10;;;;;;4813278;29;87405;-88
2023/06/23 06:20:31;;;;;;;51.63;30.60;;;17.40;98.10;;;;;;4809288;29;90188;-90
2023/06/23 06:22:57;;;;;;;50.28;31.55;;;17.50;97.90;;;;;;4806823;29;90341;-91
2023/06/23 06:25:25;;;;;;;52.33;31.73;;;17.60;97.50;;;;;;4822253;29;87722;-89
2023/06/23 06:27:52;;;;;;;44.35;27.58;;;17.70;97.60;;;;;;4824476;29;89815;-91
2023/06/23 06:30:19;;;;;;;41.72;26.92;;;17.70;96.90;;;;;;4808415;29;90325;-92
2023/06/23 06:32:46;;;;;;;46.00;28.08;;;17.80;97.10;;;;;;4808918;29;91440;-91
2023/06/23 06:35:15;;;;;;;43.40;27.40;;;17.90;96.80;;;;;;4822694;29;89191;-89
2023/06/23 06:37:47;;;;;;;49.17;28.15;;;17.90;96.40;;;;;;4806909;29;90053;-91
2023/06/23 06:40:15;;;;;;;47.53;28.20;;;18.00;96.40;;;;;;4807378;29;92067;-92
2023/06/23 06:42:41;;;;;;;43.28;26.92;;;18.10;96.40;;;;;;4822574;29;91117;-86
2023/06/23 06:45:07;;;;;;;43.92;28.40;;;18.20;96.20;;;;;;4823225;29;88055;-94
2023/06/23 06:47:40;;;;;;;40.95;27.27;;;18.20;96.10;;;;;;4822347;29;89291;-92
2023/06/23 06:50:07;;;;;;;46.88;27.65;;;18.30;95.90;;;;;;4807164;29;91669;-93
2023/06/23 06:52:35;;;;;;;41.70;26.05;;;18.30;95.90;;;;;;4824422;29;92059;-93
2023/06/23 06:55:00;;;;;;;39.15;26.27;;;18.40;95.60;;;;;;4806449;29;87868;-92
2023/06/23 06:57:26;;;;;;;43.08;25.08;;;18.50;96.00;;;;;;4822608;29;89050;-94
2023/06/23 06:59:52;;;;;;;40.58;23.48;;;18.60;95.00;;;;;;4807554;29;92087;-90
2023/06/23 07:02:18;;;;;;;40.85;25.42;;;18.70;94.80;;;;;;4823838;29;92248;-93
2023/06/23 07:04:44;;;;;;;37.88;24.17;;;18.70;94.90;;;;;;4807391;29;87649;-95
2023/06/23 07:07:13;;;;;;;36.47;24.13;;;18.80;94.60;;;;;;4821956;29;89246;-92
2023/06/23 07:09:39;;;;;;;34.15;22.42;;;18.90;94.30;;;;;;4809462;29;90268;-91
2023/06/23 07:12:06;;;;;;;34.05;23.20;;;19.00;94.00;;;;;;4823794;29;91128;-93
2023/06/23 07:14:32;;;;;;;36.38;23.90;;;19.00;93.70;;;;;;4822380;29;87862;-93
2023/06/23 07:16:57;;;;;;;39.15;23.42;;;19.10;94.50;;;;;;4822844;29;90446;-93
2023/06/23 07:19:23;;;;;;;42.97;24.08;;;19.30;93.80;;;;;;4823163;29;91189;-91
2023/06/23 07:21:51;;;;;;;36.40;22.70;;;19.40;93.80;;;;;;4820769;29;90278;-93
2023/06/23 07:24:16;;;;;;;32.70;21.08;;;19.50;94.10;;;;;;4807557;29;88681;-92
2023/06/23 07:26:42;;;;;;;30.10;20.48;;;19.60;93.10;;;;;;4824050;29;89149;-90
2023/06/23 07:29:08;;;;;;;29.17;19.27;;;19.60;92.40;;;;;;4822764;29;90120;-92
2023/06/23 07:31:35;;;;;;;33.85;20.23;;;19.70;91.90;;;;;;4819710;29;90389;-90
2023/06/23 07:34:01;;;;;;;32.80;20.17;;;19.80;92.80;;;;;;4807606;29;87841;-84
2023/06/23 07:36:26;;;;;;;37.05;19.98;;;19.90;92.70;;;;;;4807223;29;89428;-86
2023/06/23 07:38:52;;;;;;;30.98;20.55;;;20.00;92.00;;;;;;4823259;29;91197;-86
2023/06/23 07:41:17;;;;;;;29.88;18.50;;;20.10;92.10;;;;;;4821555;29;91155;-86
2023/06/23 07:43:43;;;;;;;31.52;19.73;;;20.20;91.70;;;;;;4822133;29;87647;-83
2023/06/23 07:46:12;;;;;;;28.67;19.60;;;20.30;91.20;;;;;;4821218;29;89550;-84
2023/06/23 07:48:38;;;;;;;30.23;19.63;;;20.40;90.80;;;;;;4805769;29;92282;-87
2023/06/23 07:51:03;;;;;;;28.77;18.73;;;20.40;90.80;;;;;;4822467;29;92251;-85
2023/06/23 07:53:29;;;;;;;27.20;18.20;;;20.50;90.90;;;;;;4821684;29;87852;-85
2023/06/23 07:55:54;;;;;;;27.38;18.70;;;20.60;90.80;;;;;;4821546;29;89680;-83
2023/06/23 07:58:20;;;;;;;26.58;18.00;;;20.70;90.90;;;;;;4821200;29;91729;-82
2023/06/23 08:00:46;;;;;;;25.75;17.25;;;20.80;90.30;;;;;;4821144;29;90581;-82
2023/06/23 08:03:12;;;;;;;31.45;18.25;;;20.90;88.50;;;;;;4821038;29;87660;-82
2023/06/23 08:05:38;;;;;;;28.13;17.65;;;20.90;89.10;;;;;;4806730;29;90031;-82
2023/06/23 08:08:04;;;;;;;23.92;16.05;;;21.10;90.10;;;;;;4805646;29;90393;-82
2023/06/23 08:10:30;;;;;;;26.45;17.05;;;21.10;87.50;;;;;;4805610;29;91196;-82
2023/06/23 08:12:55;;;;;;;22.17;16.08;;;21.30;88.70;;;;;;4821997;29;88073;-81
2023/06/23 08:15:21;;;;;;;26.75;17.17;;;21.40;88.00;;;;;;4822967;29;87956;-83
2023/06/23 08:17:48;;;;;;;24.33;17.10;;;21.50;86.90;;;;;;4821171;29;92042;-83
2023/06/23 08:20:13;;;;;;;30.08;17.58;;;21.60;88.20;;;;;;4823124;29;87933;-82
2023/06/23 08:22:40;;;;;;;27.63;16.58;;;21.70;87.80;;;;;;4806749;29;87825;-83
2023/06/23 08:25:06;;;;;;;44.13;17.55;;;21.90;88.10;;;;;;4805209;29;89215;-82
2023/06/23 08:27:32;;;;;;;22.80;16.17;;;21.90;85.30;;;;;;4805139;29;91661;-82
2023/06/23 08:29:58;;;;;;;27.55;17.52;;;22.10;85.70;;;;;;4823215;29;90796;-86
2023/06/23 08:32:23;;;;;;;29.55;17.42;;;22.20;83.80;;;;;;4807118;29;87949;-86
2023/06/23 08:34:49;;;;;;;23.65;15.90;;;22.30;84.60;;;;;;4822546;29;89408;-87
2023/06/23 08:37:14;;;;;;;25.65;16.10;;;22.40;84.90;;;;;;4821884;29;91337;-86
2023/06/23 08:39:40;;;;;;;21.95;14.25;;;22.50;83.70;;;;;;4821672;29;91185;-87
2023/06/23 08:42:07;;;;;;;20.58;15.77;;;22.50;82.60;;;;;;4822699;29;87625;-89
2023/06/23 08:44:35;;;;;;;25.65;15.60;;;22.60;81.70;;;;;;4806413;29;89897;-88
2023/06/23 08:47:04;;;;;;;28.33;17.48;;;22.60;82.30;;;;;;4822248;29;90220;-88
2023/06/23 08:49:32;;;;;;;22.23;15.00;;;22.70;83.90;;;;;;4811308;29;90103;-87
2023/06/23 08:51:59;;;;;;;20.92;15.43;;;22.90;82.60;;;;;;4810569;29;87563;-87
2023/06/23 08:54:25;;;;;;;25.60;15.98;;;23.00;82.30;;;;;;4810442;29;90316;-87
2023/06/23 08:56:51;;;;;;;24.42;15.65;;;23.00;82.20;;;;;;4825876;29;90524;-84
2023/06/23 08:59:16;;;;;;;22.23;14.45;;;23.10;81.10;;;;;;4824488;29;91190;-87
2023/06/23 09:01:42;;;;;;;22.50;15.80;;;23.30;82.20;;;;;;4824314;29;88408;-86
2023/06/23 09:04:08;;;;;;;21.80;14.05;;;23.40;81.60;;;;;;4824782;29;89129;-88
2023/06/23 09:06:33;;;;;;;24.80;15.13;;;23.40;80.50;;;;;;4824482;29;91844;-87
2023/06/23 09:09:00;;;;;;;23.90;14.18;;;23.50;78.10;;;;;;4826002;29;90238;-87
2023/06/23 09:11:26;;;;;;;22.45;13.38;;;23.50;78.50;;;;;;4823763;29;88220;-84
2023/06/23 09:13:54;;;;;;;20.48;14.07;;;23.60;79.50;;;;;;4824422;29;90525;-88
2023/06/23 09:16:21;;;;;;;18.90;11.98;;;23.90;79.80;;;;;;4807736;29;91019;-86
2023/06/23 09:18:47;;;;;;;16.92;10.23;;;24.00;78.50;;;;;;4809392;29;90886;-89
2023/06/23 09:21:13;;;;;;;19.40;13.15;;;24.20;79.20;;;;;;4823614;29;87991;-89
2023/06/23 09:23:39;;;;;;;18.83;13.15;;;24.30;74.90;;;;;;4824313;29;89779;-89
2023/06/23 09:26:06;;;;;;;15.77;11.85;;;24.50;75.90;;;;;;4823213;29;91372;-89
2023/06/23 09:28:38;;;;;;;13.88;9.82;;;24.50;75.10;;;;;;4824431;29;92098;-89
2023/06/23 09:31:15;;;;;;;18.92;10.82;;;24.80;78.60;;;;;;4824593;29;87732;-90
2023/06/23 09:33:49;;;;;;;14.73;9.55;;;25.00;72.40;;;;;;4823989;29;90533;-86
2023/06/23 09:36:15;;;;;;;15.50;9.85;;;25.00;68.30;;;;;;4808315;29;91193;-91
2023/06/23 09:38:42;;;;;;;37.38;14.13;;;25.10;70.40;;;;;;4809975;29;90099;-89
2023/06/23 09:41:14;;;;;;;17.10;12.73;;;25.20;71.50;;;;;;4824200;29;87621;-90
2023/06/23 09:43:59;;;;;;;19.90;11.63;;;25.30;70.80;;;;;;4809332;29;89225;-91
2023/06/23 09:46:27;;;;;;;16.20;12.32;;;25.30;73.10;;;;;;4809147;29;89645;-90
2023/06/23 09:48:56;;;;;;;20.55;12.65;;;25.30;70.20;;;;;;4823814;29;91381;-89
2023/06/23 09:51:22;;;;;;;16.65;9.18;;;25.30;72.20;;;;;;4808753;29;88534;-87
2023/06/23 09:53:48;;;;;;;15.25;9.85;;;25.50;71.60;;;;;;4825428;29;90303;-85
2023/06/23 09:56:20;;;;;;;14.45;9.63;;;25.60;66.30;;;;;;4807781;29;90651;-84
2023/06/23 09:58:47;;;;;;;6.97;5.63;;;25.70;66.50;;;;;;4807696;29;90406;-85
2023/06/23 10:01:15;;;;;;;8.93;7.70;;;25.80;71.70;;;;;;4808349;29;87737;-85
2023/06/23 10:03:44;;;;;;;12.77;8.05;;;26.10;66.70;;;;;;4809502;29;90099;-83
2023/06/23 10:06:34;;;;;;;13.85;9.63;;;26.30;66.50;;;;;;4808661;29;91184;-84
2023/06/23 10:09:02;;;;;;;25.05;10.57;;;26.40;65.30;;;;;;4823696;29;95671;-83
2023/06/23 10:11:39;;;;;;;13.90;9.85;;;26.50;66.00;;;;;;4808045;29;87271;-83
2023/06/23 10:14:10;;;;;;;10.48;7.82;;;26.50;60.60;;;;;;4808912;29;90280;-83
2023/06/23 10:16:36;;;;;;;15.10;9.48;;;26.40;61.40;;;;;;4807878;29;92251;-85
2023/06/23 10:19:04;;;;;;;14.45;9.88;;;26.30;61.70;;;;;;4808609;29;92281;-86
2023/06/23 10:21:31;;;;;;;7.43;6.05;;;26.30;62.00;;;;;;4823424;29;87720;-83
2023/06/23 10:24:02;;;;;;;11.32;7.53;;;26.60;67.50;;;;;;4823616;29;90736;-82
2023/06/23 10:26:31;;;;;;;13.00;9.43;;;26.90;68.50;;;;;;4823318;29;91531;-85
2023/06/23 10:28:58;;;;;;;12.82;9.63;;;27.20;64.40;;;;;;4824527;29;90047;-84
2023/06/23 10:31:29;;;;;;;17.98;9.95;;;27.20;60.90;;;;;;4823381;29;87207;-83
2023/06/23 10:33:58;;;;;;;10.63;8.18;;;27.30;61.70;;;;;;4824344;29;90165;-85
2023/06/23 10:36:25;;;;;;;11.30;8.25;;;27.40;59.50;;;;;;4823992;29;90351;-85
2023/06/23 10:38:54;;;;;;;12.77;7.20;;;27.50;57.00;;;;;;4810147;29;89983;-86
2023/06/23 10:41:20;;;;;;;8.57;5.72;;;27.60;59.70;;;;;;4807436;29;88685;-86
2023/06/23 10:43:51;;;;;;;13.23;10.25;;;27.90;64.40;;;;;;4825000;29;89283;-85
2023/06/23 10:46:17;;;;;;;12.75;9.52;;;28.20;59.70;;;;;;4807444;29;89891;-84
2023/06/23 10:48:44;;;;;;;13.23;9.07;;;28.20;57.10;;;;;;4824068;29;89775;-86
2023/06/23 10:51:10;;;;;;;14.25;10.05;;;28.10;56.70;;;;;;4809312;29;87749;-86
2023/06/23 10:53:45;;;;;;;11.88;8.68;;;28.10;56.50;;;;;;4822172;29;95251;-85
2023/06/23 10:56:29;;;;;;;12.07;8.85;;;28.10;56.30;;;;;;4807578;29;91585;-85
2023/06/23 10:58:56;;;;;;;12.07;9.88;;;28.10;56.40;;;;;;4824463;29;86526;-85
2023/06/23 11:01:22;;;;;;;14.70;9.00;;;28.10;56.00;;;;;;4823761;29;87578;-86
2023/06/23 11:03:57;;;;;;;14.00;7.45;;;28.20;54.50;;;;;;4823729;29;90457;-86
2023/06/23 11:06:28;;;;;;;12.68;9.95;;;28.30;56.00;;;;;;4797820;29;92168;-85
2023/06/23 11:08:56;;;;;;;9.35;5.82;;;28.50;57.70;;;;;;4808465;29;90902;-81
2023/06/23 11:11:32;;;;;;;16.10;10.10;;;28.80;58.00;;;;;;4822714;29;87701;-88
2023/06/23 11:13:58;;;;;;;13.07;11.68;;;29.00;55.40;;;;;;4821238;29;90408;-87
2023/06/23 11:16:30;;;;;;;16.20;11.38;;;29.00;54.80;;;;;;4821464;29;90129;-85
2023/06/23 11:18:57;;;;;;;13.30;11.30;;;28.80;55.20;;;;;;4807215;29;91325;-88
2023/06/23 11:21:35;;;;;;;16.55;12.38;;;28.60;54.40;;;;;;4806841;29;87479;-89
2023/06/23 11:24:17;;;;;;;17.05;12.23;;;28.50;55.70;;;;;;4808454;29;91137;-85
2023/06/23 11:26:48;;;;;;;12.65;10.15;;;28.50;54.80;;;;;;4806437;29;97143;-88
2023/06/23 11:29:17;;;;;;;12.07;8.68;;;28.60;57.00;;;;;;4821300;29;91673;-84
2023/06/23 11:32:02;;;;;;;8.85;7.43;;;28.80;59.50;;;;;;4823166;29;89911;-86
2023/06/23 11:34:28;;;;;;;11.23;8.20;;;29.30;57.30;;;;;;4808283;29;89315;-86
2023/06/23 11:36:55;;;;;;;11.23;8.50;;;29.50;54.70;;;;;;4823324;29;91344;-87
2023/06/23 11:39:22;;;;;;;9.38;7.20;;;29.30;52.40;;;;;;4823749;29;91470;-86
2023/06/23 11:41:47;;;;;;;9.50;8.23;;;29.30;55.10;;;;;;4810011;29;87716;-87
2023/06/23 11:44:14;;;;;;;11.07;8.18;;;29.50;53.10;;;;;;4823569;29;90610;-86
2023/06/23 11:46:39;;;;;;;14.27;9.25;;;29.50;53.10;;;;;;4807095;29;91241;-84
2023/06/23 11:49:10;;;;;;;11.27;8.43;;;29.50;51.90;;;;;;4823620;29;90473;-87
2023/06/23 11:51:36;;;;;;;10.18;9.10;;;29.50;56.20;;;;;;4808342;29;87221;-90
2023/06/23 11:54:02;;;;;;;8.55;6.75;;;29.70;53.70;;;;;;4823578;29;90050;-88
2023/06/23 11:56:27;;;;;;;9.68;8.32;;;29.80;52.90;;;;;;4822114;29;91101;-88
2023/06/23 11:58:57;;;;;;;9.75;7.78;;;29.70;51.70;;;;;;4822333;29;91941;-93
2023/06/23 12:01:23;;;;;;;11.90;7.90;;;29.70;53.00;;;;;;4821389;29;87647;-86
2023/06/23 12:03:50;;;;;;;12.93;7.22;;;29.50;50.50;;;;;;4806282;29;90443;-84
2023/06/23 12:06:17;;;;;;;8.40;6.68;;;29.50;52.60;;;;;;4806790;29;90292;-84
2023/06/23 12:08:50;;;;;;;7.38;5.65;;;29.50;51.60;;;;;;4823380;29;90617;-85
2023/06/23 12:11:20;;;;;;;8.88;6.35;;;29.80;51.20;;;;;;4822638;29;87979;-84
2023/06/23 12:13:48;;;;;;;4.97;3.78;;;29.90;51.40;;;;;;4822974;29;89382;-85
2023/06/23 12:16:14;;;;;;;7.30;5.18;;;30.10;56.70;;;;;;4807505;29;91949;-84
2023/06/23 12:18:46;;;;;;;7.28;6.10;;;30.40;54.40;;;;;;4822465;29;90947;-85
2023/06/23 12:21:14;;;;;;;5.57;5.03;;;30.60;49.10;;;;;;4806925;29;88576;-85
2023/06/23 12:23:40;;;;;;;10.27;6.50;;;30.60;51.90;;;;;;4823301;29;90244;-84
2023/06/23 12:26:07;;;;;;;7.80;6.45;;;30.60;50.00;;;;;;4809513;29;90456;-82
2023/06/23 12:28:33;;;;;;;6.68;4.60;;;30.60;47.80;;;;;;4825365;29;90378;-86
2023/06/23 12:30:58;;;;;;;6.93;6.22;;;30.70;53.10;;;;;;4825606;29;87648;-84
2023/06/23 12:33:28;;;;;;;8.50;4.78;;;30.90;50.20;;;;;;4825676;29;89269;-86
2023/06/23 12:35:54;;;;;;;15.45;7.47;;;31.20;53.50;;;;;;4825872;29;90512;-82
2023/06/23 12:38:25;;;;;;;6.78;5.30;;;31.40;49.80;;;;;;4809962;29;90072;-85
2023/06/23 12:40:51;;;;;;;7.88;4.68;;;31.60;48.30;;;;;;4825232;29;87357;-85
2023/06/23 12:43:18;;;;;;;6.88;4.57;;;31.60;46.00;;;;;;4824827;29;90255;-84
2023/06/23 12:45:46;;;;;;;8.88;4.07;;;31.50;47.60;;;;;;4824407;29;91435;-82
2023/06/23 12:48:12;;;;;;;3.75;2.67;;;31.40;47.50;;;;;;4809869;29;91828;-84
2023/06/23 12:50:41;;;;;;;5.97;4.47;;;31.60;52.50;;;;;;4810332;29;87642;-83
2023/06/23 12:53:07;;;;;;;9.63;5.78;;;32.00;46.90;;;;;;4809441;29;90320;-84
2023/06/23 12:55:33;;;;;;;8.27;4.60;;;32.20;45.60;;;;;;4825552;29;92182;-83
2023/06/23 12:57:59;;;;;;;9.73;5.47;;;32.20;48.30;;;;;;4824797;29;90394;-85
2023/06/23 13:00:24;;;;;;;9.10;5.93;;;32.20;46.80;;;;;;4824741;29;87857;-82
2023/06/23 13:02:52;;;;;;;4.78;3.55;;;32.00;45.40;;;;;;4825663;29;90281;-84
2023/06/23 13:05:18;;;;;;;7.45;4.50;;;31.90;47.20;;;;;;4809234;29;91647;-84
2023/06/23 13:07:44;;;;;;;5.78;3.40;;;31.90;45.20;;;;;;4808854;29;90205;-84
2023/06/23 13:10:10;;;;;;;4.57;3.72;;;32.00;45.30;;;;;;4824496;29;88401;-83
2023/06/23 13:12:36;;;;;;;5.72;3.47;;;32.00;45.00;;;;;;4809786;29;89051;-85
2023/06/23 13:15:06;;;;;;;5.88;3.15;;;31.80;45.40;;;;;;4811043;29;90316;-84
2023/06/23 13:17:32;;;;;;;7.07;4.00;;;31.80;45.80;;;;;;4808445;29;91499;-82
2023/06/23 13:19:59;;;;;;;7.03;3.90;;;31.90;46.40;;;;;;4825104;29;87593;-85
2023/06/23 13:22:25;;;;;;;4.63;3.58;;;32.00;47.40;;;;;;4810239;29;90342;-85
2023/06/23 13:24:50;;;;;;;6.35;4.10;;;32.20;44.80;;;;;;4809247;29;90769;-84
2023/06/23 13:27:16;;;;;;;5.18;3.88;;;32.00;45.80;;;;;;4823717;29;91239;-85
2023/06/23 13:29:42;;;;;;;5.82;3.28;;;31.70;44.80;;;;;;4825406;29;87558;-84
2023/06/23 13:32:08;;;;;;;5.32;3.78;;;31.60;47.80;;;;;;4824035;29;89201;-84
2023/06/23 13:34:35;;;;;;;4.75;3.60;;;31.70;45.70;;;;;;4807694;29;91118;-85
2023/06/23 13:37:02;;;;;;;3.95;2.58;;;31.80;47.00;;;;;;4808923;29;91013;-84
2023/06/23 13:39:28;;;;;;;4.88;2.92;;;32.00;49.50;;;;;;4808735;29;87838;-85
2023/06/23 13:41:54;;;;;;;6.53;3.20;;;32.50;48.30;;;;;;4825269;29;90004;-84
2023/06/23 13:44:21;;;;;;;6.78;3.13;;;32.70;44.40;;;;;;4824929;29;92292;-84
2023/06/23 13:46:47;;;;;;;6.40;3.03;;;32.80;47.40;;;;;;4824257;29;91038;-85
2023/06/23 13:49:13;;;;;;;6.00;3.30;;;33.10;45.40;;;;;;4808044;29;87360;-85
2023/06/23 13:51:41;;;;;;;6.10;3.10;;;32.90;42.00;;;;;;4825497;29;90901;-85
2023/06/23 13:54:07;;;;;;;6.35;2.97;;;32.90;43.40;;;;;;4826561;29;91794;-86
2023/06/23 13:56:33;;;;;;;9.10;2.97;;;33.00;43.70;;;;;;4809922;29;91130;-86
2023/06/23 13:58:59;;;;;;;15.93;3.70;;;33.10;42.00;;;;;;4807477;29;88869;-84